Time;durP1;ratioP1;P1;durP2;ratioP2;P2;SDS_P1;SDS_P2;PMS_P1;PMS_P2;Temp;Humidity;BMP_temperature;BMP_pressure;BME280_temperature;BME280_humidity;BME280_pressure;Samples;Min_cycle;Max_cycle;Signal;HPM_P1;HPM_P2
2021/03/22 00:00:00;;;;;;;5.78;1.27;;;0.80;99.90;;;;;;4996594;28;20060;-65
2021/03/22 00:02:26;;;;;;;8.23;1.77;;;0.70;99.90;;;;;;4999598;28;20037;-65
2021/03/22 00:04:52;;;;;;;7.07;1.42;;;0.60;99.90;;;;;;4998140;28;20133;-65
2021/03/22 00:07:17;;;;;;;7.57;1.50;;;0.60;99.90;;;;;;4997630;28;20515;-65
2021/03/22 00:09:43;;;;;;;5.30;1.30;;;0.60;99.90;;;;;;4980134;28;20113;-65
2021/03/22 00:12:09;;;;;;;4.60;1.15;;;0.60;99.90;;;;;;4997803;28;20143;-65
2021/03/22 00:14:35;;;;;;;3.55;1.45;;;0.60;99.90;;;;;;4997330;28;20568;-65
2021/03/22 00:17:01;;;;;;;4.88;1.15;;;0.50;99.90;;;;;;4997380;28;20133;-65
2021/03/22 00:19:29;;;;;;;8.23;1.30;;;0.40;99.90;;;;;;4997469;28;20097;-65
2021/03/22 00:21:55;;;;;;;6.70;1.40;;;0.40;99.90;;;;;;4997911;28;20855;-65
2021/03/22 00:24:21;;;;;;;4.15;1.30;;;0.30;99.90;;;;;;4997513;28;20022;-65
2021/03/22 00:26:47;;;;;;;5.07;1.30;;;0.30;99.90;;;;;;4997510;28;20041;-65
2021/03/22 00:29:12;;;;;;;5.95;1.23;;;0.20;99.90;;;;;;4997309;28;20124;-65
2021/03/22 00:31:38;;;;;;;7.55;1.17;;;0.30;99.90;;;;;;4999320;28;20133;-65
2021/03/22 00:34:04;;;;;;;5.35;1.20;;;0.40;99.90;;;;;;4987934;28;20846;-65
2021/03/22 00:36:30;;;;;;;8.10;1.55;;;0.40;99.90;;;;;;4996694;28;20038;-66
2021/03/22 00:38:55;;;;;;;5.85;1.25;;;0.30;99.90;;;;;;4999215;28;20034;-65
2021/03/22 00:41:23;;;;;;;7.13;1.27;;;0.30;99.90;;;;;;4979320;28;20026;-65
2021/03/22 00:43:49;;;;;;;7.45;1.35;;;0.20;99.90;;;;;;4997223;28;20112;-65
2021/03/22 00:46:16;;;;;;;5.22;1.48;;;0.20;99.90;;;;;;4996320;28;20104;-65
2021/03/22 00:48:41;;;;;;;3.92;1.50;;;0.20;99.90;;;;;;4996007;28;20065;-65
2021/03/22 00:51:07;;;;;;;7.80;1.33;;;0.10;99.90;;;;;;4986187;28;20133;-65
2021/03/22 00:53:37;;;;;;;3.97;1.27;;;0.10;99.90;;;;;;4996720;28;20034;-65
2021/03/22 00:56:04;;;;;;;5.53;1.95;;;0.20;99.90;;;;;;4996522;28;20042;-65
2021/03/22 00:58:30;;;;;;;5.07;1.40;;;0.20;99.90;;;;;;4992607;28;20103;-65
2021/03/22 01:00:58;;;;;;;7.75;1.40;;;0.20;99.90;;;;;;4996573;28;20034;-66
2021/03/22 01:03:27;;;;;;;5.47;1.13;;;0.40;99.90;;;;;;4979355;28;20088;-65
2021/03/22 01:05:53;;;;;;;8.77;1.75;;;0.50;99.90;;;;;;4998602;28;20445;-65
2021/03/22 01:08:22;;;;;;;6.13;1.35;;;0.60;99.90;;;;;;4999276;28;20631;-65
2021/03/22 01:10:59;;;;;;;9.70;1.70;;;0.70;99.90;;;;;;4990949;28;20489;-65
2021/03/22 01:13:28;;;;;;;6.93;2.40;;;0.70;99.90;;;;;;4995950;28;20025;-65
2021/03/22 01:15:55;;;;;;;6.47;1.17;;;0.70;99.90;;;;;;4995761;28;20034;-65
2021/03/22 01:18:24;;;;;;;11.80;1.75;;;0.80;99.90;;;;;;4996125;28;20092;-65
2021/03/22 01:20:57;;;;;;;6.07;1.52;;;0.80;99.90;;;;;;4987388;28;20034;-65
2021/03/22 01:23:23;;;;;;;2.22;1.08;;;0.80;99.90;;;;;;4978582;28;20163;-65
2021/03/22 01:25:49;;;;;;;6.00;1.25;;;0.70;99.90;;;;;;4995824;28;20022;-65
2021/03/22 01:28:17;;;;;;;4.00;1.40;;;0.80;99.90;;;;;;4978008;28;20062;-66
2021/03/22 01:30:53;;;;;;;7.15;1.30;;;0.80;99.90;;;;;;4995527;28;20033;-65
2021/03/22 01:33:25;;;;;;;9.07;2.05;;;0.70;99.90;;;;;;4995364;28;20045;-66
2021/03/22 01:35:59;;;;;;;7.68;1.52;;;0.80;99.90;;;;;;4995170;28;20044;-65
2021/03/22 01:38:26;;;;;;;10.35;1.75;;;0.70;99.90;;;;;;4991619;28;20490;-65
2021/03/22 01:41:07;;;;;;;6.28;1.40;;;0.70;99.90;;;;;;4995774;28;20030;-65
2021/03/22 01:43:44;;;;;;;7.22;1.88;;;0.70;99.90;;;;;;4993740;28;20049;-67
2021/03/22 01:46:10;;;;;;;6.03;1.60;;;0.70;99.90;;;;;;4992660;28;20581;-65
2021/03/22 01:48:36;;;;;;;7.80;1.50;;;0.70;99.90;;;;;;4995642;28;20097;-65
2021/03/22 01:51:03;;;;;;;4.25;1.40;;;0.70;99.90;;;;;;4976853;28;20146;-66
2021/03/22 01:53:29;;;;;;;10.35;2.15;;;0.80;99.90;;;;;;4995972;28;20557;-65
2021/03/22 01:56:12;;;;;;;11.27;2.17;;;0.80;99.90;;;;;;4994742;28;20038;-65
2021/03/22 01:58:37;;;;;;;7.78;1.83;;;0.80;99.90;;;;;;4995132;28;20037;-65
2021/03/22 02:01:03;;;;;;;5.65;1.60;;;0.60;99.90;;;;;;4993551;28;20022;-65
2021/03/22 02:03:29;;;;;;;9.32;1.77;;;0.50;99.90;;;;;;4995617;28;20504;-65
2021/03/22 02:05:55;;;;;;;12.02;1.70;;;0.50;99.90;;;;;;4974364;28;20777;-65
2021/03/22 02:08:35;;;;;;;5.70;1.83;;;0.50;99.90;;;;;;4995340;28;20140;-65
2021/03/22 02:11:00;;;;;;;15.30;2.35;;;0.60;99.90;;;;;;4993901;28;20834;-65
2021/03/22 02:13:31;;;;;;;9.73;2.00;;;0.70;99.90;;;;;;4994751;28;20069;-65
2021/03/22 02:16:25;;;;;;;5.45;1.60;;;0.80;99.90;;;;;;4975618;28;20049;-65
2021/03/22 02:19:13;;;;;;;8.68;1.73;;;0.80;99.90;;;;;;4964285;28;20163;-67
2021/03/22 02:21:56;;;;;;;9.05;1.55;;;0.80;99.90;;;;;;4992782;28;20038;-65
2021/03/22 02:24:40;;;;;;;10.35;2.10;;;0.80;99.90;;;;;;4991348;28;20084;-66
2021/03/22 02:27:32;;;;;;;18.58;2.10;;;0.80;99.90;;;;;;4992910;28;20061;-66
2021/03/22 02:30:37;;;;;;;12.85;1.92;;;0.70;99.90;;;;;;4994313;28;20022;-65
2021/03/22 02:33:29;;;;;;;8.73;1.83;;;0.80;99.90;;;;;;4914163;29;20032;-66
2021/03/22 02:36:38;;;;;;;14.32;2.22;;;0.80;99.90;;;;;;4913828;29;20043;-65
2021/03/22 02:39:04;;;;;;;16.58;2.83;;;0.90;99.90;;;;;;4988734;28;20042;-66
2021/03/22 02:41:46;;;;;;;13.68;2.20;;;0.80;99.90;;;;;;4994322;28;20034;-65
2021/03/22 02:44:32;;;;;;;14.23;2.20;;;0.80;99.90;;;;;;4991403;28;20034;-66
2021/03/22 02:47:01;;;;;;;17.23;2.85;;;0.80;99.90;;;;;;4992705;28;20602;-66
2021/03/22 02:49:30;;;;;;;12.10;2.38;;;0.80;99.90;;;;;;4994189;28;20038;-66
2021/03/22 02:52:33;;;;;;;20.80;3.10;;;0.80;99.90;;;;;;4994419;28;20113;-66
2021/03/22 02:55:15;;;;;;;20.20;3.05;;;0.70;99.90;;;;;;4992275;28;20044;-66
2021/03/22 02:57:55;;;;;;;19.50;2.60;;;0.70;99.90;;;;;;4993159;28;20065;-66
2021/03/22 03:00:28;;;;;;;21.65;3.28;;;0.60;99.90;;;;;;4993175;28;20034;-66
2021/03/22 03:02:58;;;;;;;15.38;2.67;;;0.70;99.90;;;;;;4994488;28;20034;-66
2021/03/22 03:05:26;;;;;;;25.40;3.55;;;0.70;99.90;;;;;;4991722;28;20062;-66
2021/03/22 03:07:58;;;;;;;20.60;3.20;;;0.70;99.90;;;;;;4996604;28;20473;-65
2021/03/22 03:10:25;;;;;;;25.23;3.22;;;0.80;99.90;;;;;;4991223;28;20033;-65
2021/03/22 03:12:51;;;;;;;27.08;2.80;;;0.90;99.90;;;;;;4999067;28;20381;-65
2021/03/22 03:15:18;;;;;;;23.27;3.67;;;0.90;99.90;;;;;;4982119;28;20049;-65
2021/03/22 03:17:44;;;;;;;18.95;3.83;;;1.10;99.90;;;;;;4973248;28;20099;-65
2021/03/22 03:20:18;;;;;;;29.08;4.18;;;1.10;99.90;;;;;;4998061;28;20038;-65
2021/03/22 03:22:44;;;;;;;22.63;3.65;;;1.20;99.90;;;;;;4995354;28;20493;-65
2021/03/22 03:25:12;;;;;;;22.88;3.40;;;1.20;99.90;;;;;;4996457;28;20207;-66
2021/03/22 03:27:38;;;;;;;23.92;5.50;;;1.20;99.90;;;;;;4993464;28;20853;-63
2021/03/22 03:30:08;;;;;;;30.10;4.75;;;1.30;99.90;;;;;;4998207;28;20706;-64
2021/03/22 03:32:33;;;;;;;28.77;5.15;;;1.30;99.90;;;;;;4997571;28;20044;-64
2021/03/22 03:34:59;;;;;;;27.30;4.75;;;1.30;99.90;;;;;;4997383;28;20038;-64
2021/03/22 03:37:25;;;;;;;22.70;4.35;;;1.30;99.90;;;;;;4998005;28;20034;-64
2021/03/22 03:39:51;;;;;;;23.05;3.85;;;1.10;99.90;;;;;;4996211;28;20104;-64
2021/03/22 03:42:16;;;;;;;32.47;4.25;;;1.00;99.90;;;;;;4998218;28;20037;-64
2021/03/22 03:44:42;;;;;;;30.92;4.07;;;0.90;99.90;;;;;;4999045;28;20140;-64
2021/03/22 03:47:08;;;;;;;29.50;4.00;;;0.90;99.90;;;;;;4981402;28;20124;-64
2021/03/22 03:49:34;;;;;;;30.55;3.80;;;0.90;99.90;;;;;;4998768;28;20116;-64
2021/03/22 03:51:59;;;;;;;37.80;3.97;;;1.00;99.90;;;;;;4999386;28;20056;-65
2021/03/22 03:54:25;;;;;;;40.95;4.40;;;1.10;99.90;;;;;;4963936;28;20490;-66
2021/03/22 03:56:51;;;;;;;27.90;4.53;;;1.10;99.90;;;;;;4997488;28;20382;-66
2021/03/22 03:59:16;;;;;;;21.95;3.92;;;1.20;99.90;;;;;;4998318;28;20041;-66
2021/03/22 04:01:42;;;;;;;24.55;5.07;;;1.20;99.90;;;;;;4998323;28;20734;-66
2021/03/22 04:04:08;;;;;;;30.42;4.00;;;1.20;99.90;;;;;;4998229;28;20034;-64
2021/03/22 04:06:35;;;;;;;33.92;5.10;;;1.30;99.90;;;;;;4997999;28;20112;-66
2021/03/22 04:09:03;;;;;;;36.25;5.88;;;1.40;99.90;;;;;;4997749;28;20025;-66
2021/03/22 04:11:40;;;;;;;35.40;5.63;;;1.50;99.90;;;;;;4997878;28;20115;-66
2021/03/22 04:14:08;;;;;;;28.00;4.93;;;1.50;99.90;;;;;;4998049;28;20033;-66
2021/03/22 04:16:34;;;;;;;28.48;4.78;;;1.50;99.90;;;;;;4975948;28;20080;-66
2021/03/22 04:19:00;;;;;;;25.77;4.45;;;1.50;99.90;;;;;;4997336;28;20053;-66
2021/03/22 04:21:29;;;;;;;30.63;4.53;;;1.50;99.90;;;;;;4997647;28;20037;-66
2021/03/22 04:23:56;;;;;;;27.85;4.50;;;1.50;99.90;;;;;;4980024;28;20045;-66
2021/03/22 04:26:22;;;;;;;23.02;4.30;;;1.50;99.90;;;;;;4979001;28;20033;-66
2021/03/22 04:28:48;;;;;;;36.92;6.72;;;1.60;99.90;;;;;;4993947;28;20030;-66
2021/03/22 04:31:16;;;;;;;40.78;5.95;;;1.60;99.90;;;;;;4980015;28;20211;-66
2021/03/22 04:33:43;;;;;;;45.78;5.30;;;1.60;99.90;;;;;;4996783;28;20032;-66
2021/03/22 04:36:09;;;;;;;33.72;5.93;;;1.70;99.90;;;;;;4996382;28;20861;-66
2021/03/22 04:38:35;;;;;;;46.58;6.90;;;1.80;99.90;;;;;;4996847;28;20033;-66
2021/03/22 04:41:01;;;;;;;38.70;4.90;;;1.90;99.90;;;;;;4996419;28;20048;-66
2021/03/22 04:43:27;;;;;;;43.22;6.47;;;1.90;99.90;;;;;;4997314;28;20472;-66
2021/03/22 04:45:53;;;;;;;44.33;6.13;;;1.90;99.90;;;;;;4997082;28;20107;-64
2021/03/22 04:48:19;;;;;;;49.47;7.47;;;2.00;99.90;;;;;;4996356;28;20038;-64
2021/03/22 04:50:44;;;;;;;42.85;7.95;;;2.00;99.90;;;;;;4997308;28;20041;-64
2021/03/22 04:53:11;;;;;;;48.65;6.15;;;1.90;99.90;;;;;;4996509;28;20489;-64
2021/03/22 04:55:37;;;;;;;50.70;6.68;;;2.00;99.90;;;;;;4978495;28;20030;-64
2021/03/22 04:58:03;;;;;;;41.65;5.82;;;2.00;99.90;;;;;;4996259;28;20397;-64
2021/03/22 05:00:38;;;;;;;44.97;7.78;;;2.00;99.90;;;;;;4997430;28;20041;-64
2021/03/22 05:03:05;;;;;;;39.80;6.07;;;1.90;99.90;;;;;;4996202;28;20026;-64
2021/03/22 05:05:30;;;;;;;45.97;6.38;;;2.00;99.90;;;;;;4996189;28;20497;-64
2021/03/22 05:07:56;;;;;;;44.60;7.13;;;2.00;99.90;;;;;;4996419;28;20034;-64
2021/03/22 05:10:35;;;;;;;54.08;5.90;;;1.90;99.90;;;;;;4996280;28;20842;-64
2021/03/22 05:13:02;;;;;;;35.20;6.72;;;1.80;99.90;;;;;;4987449;28;20034;-64
2021/03/22 05:15:28;;;;;;;38.75;5.60;;;1.90;99.90;;;;;;4995719;28;20033;-64
2021/03/22 05:17:55;;;;;;;43.97;5.47;;;1.90;99.90;;;;;;4995676;28;20165;-64
2021/03/22 05:20:26;;;;;;;34.75;5.50;;;1.90;99.90;;;;;;4995573;28;20088;-64
2021/03/22 05:22:52;;;;;;;42.28;6.50;;;2.00;99.90;;;;;;4996899;28;20026;-65
2021/03/22 05:25:18;;;;;;;46.28;7.07;;;2.00;99.90;;;;;;4994724;28;20536;-65
2021/03/22 05:27:44;;;;;;;24.80;4.55;;;2.00;99.90;;;;;;4992547;28;20033;-66
2021/03/22 05:30:11;;;;;;;46.13;6.65;;;2.00;99.90;;;;;;4995588;28;20574;-65
2021/03/22 05:32:37;;;;;;;40.92;5.43;;;1.90;99.90;;;;;;4995416;28;20045;-65
2021/03/22 05:35:06;;;;;;;39.40;5.05;;;2.00;99.90;;;;;;4994381;28;20034;-66
2021/03/22 05:37:32;;;;;;;43.83;5.32;;;2.00;99.90;;;;;;4995488;28;20057;-66
2021/03/22 05:39:57;;;;;;;31.95;5.20;;;1.90;99.90;;;;;;4993253;28;20459;-66
2021/03/22 05:42:29;;;;;;;45.90;7.10;;;1.80;99.90;;;;;;4977596;28;20034;-66
2021/03/22 05:45:01;;;;;;;41.08;6.18;;;1.90;99.90;;;;;;4976145;28;20066;-65
2021/03/22 05:47:54;;;;;;;47.13;6.60;;;2.00;99.90;;;;;;4995296;28;20026;-66
2021/03/22 05:50:38;;;;;;;31.70;5.60;;;2.10;99.90;;;;;;4995325;28;20056;-66
2021/03/22 05:53:11;;;;;;;40.20;6.40;;;2.10;99.90;;;;;;4995167;28;20046;-66
2021/03/22 05:55:45;;;;;;;52.45;7.25;;;2.00;99.90;;;;;;4993303;28;20321;-64
2021/03/22 05:58:23;;;;;;;35.80;5.05;;;2.10;99.90;;;;;;4991710;28;20034;-64
2021/03/22 06:00:56;;;;;;;43.20;7.97;;;2.20;99.90;;;;;;4972790;28;20034;-64
2021/03/22 06:03:45;;;;;;;49.55;5.53;;;2.30;99.90;;;;;;4995240;28;20072;-64
2021/03/22 06:06:36;;;;;;;27.27;4.95;;;2.40;99.90;;;;;;4995622;28;20076;-64
2021/03/22 06:09:08;;;;;;;39.17;6.32;;;2.50;99.90;;;;;;4992061;28;20108;-64
2021/03/22 06:11:34;;;;;;;30.83;5.95;;;2.50;99.90;;;;;;4995764;28;20038;-66
2021/03/22 06:14:03;;;;;;;33.22;4.85;;;2.60;99.90;;;;;;4977213;28;20034;-65
2021/03/22 06:16:34;;;;;;;33.75;5.93;;;2.80;99.90;;;;;;4998791;28;20297;-64
2021/03/22 06:19:08;;;;;;;38.95;5.47;;;2.90;99.90;;;;;;4992833;28;20037;-64
2021/03/22 06:21:36;;;;;;;34.05;5.15;;;3.00;99.90;;;;;;4995290;28;20038;-64
2021/03/22 06:24:18;;;;;;;34.95;5.35;;;3.10;99.90;;;;;;4994393;28;20084;-64
2021/03/22 06:26:53;;;;;;;28.40;6.00;;;3.10;99.90;;;;;;4991808;28;20038;-63
2021/03/22 06:29:48;;;;;;;30.85;5.55;;;3.20;99.90;;;;;;4994007;28;20034;-62
2021/03/22 06:32:17;;;;;;;37.85;5.93;;;3.10;99.90;;;;;;4979317;28;20049;-63
2021/03/22 06:34:46;;;;;;;72.63;21.55;;;3.00;99.90;;;;;;4994789;28;20041;-63
2021/03/22 06:37:13;;;;;;;35.67;5.43;;;3.00;99.90;;;;;;4992288;28;20073;-63
2021/03/22 06:39:47;;;;;;;42.97;8.13;;;2.90;99.90;;;;;;4996098;28;20478;-63
2021/03/22 06:42:25;;;;;;;46.97;6.10;;;2.90;99.90;;;;;;4998142;28;20038;-66
2021/03/22 06:44:52;;;;;;;26.67;5.07;;;2.90;99.90;;;;;;4972744;28;20041;-66
2021/03/22 06:47:19;;;;;;;45.72;7.32;;;3.00;99.90;;;;;;4982007;28;20030;-63
2021/03/22 06:49:53;;;;;;;34.38;5.00;;;3.10;99.90;;;;;;4999882;28;20030;-64
2021/03/22 06:52:22;;;;;;;34.45;5.43;;;3.20;99.90;;;;;;5001581;28;20486;-64
2021/03/22 06:54:57;;;;;;;30.00;4.80;;;3.40;99.90;;;;;;4995516;28;20113;-64
2021/03/22 06:57:28;;;;;;;41.50;6.50;;;3.50;99.90;;;;;;4997849;28;20036;-64
2021/03/22 07:00:18;;;;;;;26.65;5.75;;;3.60;99.90;;;;;;4997760;28;20498;-64
2021/03/22 07:02:48;;;;;;;40.83;6.22;;;3.90;99.90;;;;;;4996518;28;20034;-64
2021/03/22 07:05:24;;;;;;;34.58;6.25;;;4.00;99.90;;;;;;4994242;28;20793;-64
2021/03/22 07:08:01;;;;;;;30.33;5.18;;;4.00;99.90;;;;;;4987801;28;21015;-64
2021/03/22 07:11:08;;;;;;;34.72;5.88;;;4.20;99.90;;;;;;4980196;28;20037;-64
2021/03/22 07:13:35;;;;;;;29.80;4.78;;;4.30;99.90;;;;;;4904570;29;20048;-64
2021/03/22 07:16:10;;;;;;;33.20;4.45;;;4.40;99.90;;;;;;4983258;28;20042;-64
2021/03/22 07:18:37;;;;;;;34.38;6.00;;;4.50;99.90;;;;;;4989069;28;20042;-64
2021/03/22 07:21:11;;;;;;;22.88;4.53;;;4.60;99.90;;;;;;4999066;28;20486;-63
2021/03/22 07:23:43;;;;;;;27.88;5.18;;;4.70;99.90;;;;;;4999341;28;20057;-64
2021/03/22 07:26:21;;;;;;;33.00;6.47;;;4.60;99.90;;;;;;4998647;28;20548;-64
2021/03/22 07:28:53;;;;;;;34.85;5.93;;;4.70;99.90;;;;;;4995638;28;20037;-64
2021/03/22 07:31:40;;;;;;;32.70;4.90;;;4.80;99.90;;;;;;4997945;28;20030;-64
2021/03/22 07:34:33;;;;;;;29.58;4.95;;;4.80;99.90;;;;;;4997566;28;20851;-64
2021/03/22 07:37:31;;;;;;;28.02;4.72;;;5.00;99.90;;;;;;4991552;28;20044;-64
2021/03/22 07:40:30;;;;;;;42.15;5.80;;;5.00;99.90;;;;;;4997358;28;20056;-64
2021/03/22 07:43:33;;;;;;;36.90;6.18;;;5.00;99.90;;;;;;4975654;28;20077;-64
2021/03/22 07:46:04;;;;;;;34.42;5.32;;;5.00;99.90;;;;;;4994265;28;20639;-64
2021/03/22 07:49:06;;;;;;;32.15;5.45;;;5.00;99.90;;;;;;4998375;28;20156;-64
2021/03/22 07:51:45;;;;;;;41.45;7.13;;;4.80;99.90;;;;;;4995077;28;20050;-64
2021/03/22 07:54:32;;;;;;;31.77;5.72;;;4.80;99.90;;;;;;4995322;28;20041;-64
2021/03/22 07:57:36;;;;;;;29.95;5.63;;;4.80;99.90;;;;;;4996796;28;20434;-65
2021/03/22 08:00:29;;;;;;;30.63;5.47;;;5.00;99.90;;;;;;4997491;28;20029;-65
2021/03/22 08:03:16;;;;;;;40.55;10.45;;;5.20;99.90;;;;;;4996597;28;20541;-65
2021/03/22 08:06:16;;;;;;;34.05;7.30;;;5.50;99.90;;;;;;4996040;28;20033;-65
2021/03/22 08:09:10;;;;;;;36.75;7.00;;;5.70;99.90;;;;;;4995019;28;20757;-65
2021/03/22 08:12:04;;;;;;;30.45;6.00;;;5.80;99.90;;;;;;4995839;28;20112;-65
2021/03/22 08:14:35;;;;;;;36.75;4.57;;;5.90;99.90;;;;;;4997043;28;20076;-66
2021/03/22 08:17:29;;;;;;;25.42;4.25;;;6.00;99.90;;;;;;4997440;28;20049;-65
2021/03/22 08:20:11;;;;;;;26.65;4.85;;;6.50;99.90;;;;;;4997259;28;20490;-65
2021/03/22 08:22:40;;;;;;;23.38;4.60;;;6.80;99.90;;;;;;4996894;28;20029;-66
2021/03/22 08:25:30;;;;;;;29.10;5.35;;;6.90;99.90;;;;;;4997506;28;20076;-65
2021/03/22 08:28:18;;;;;;;24.40;4.05;;;6.90;99.90;;;;;;4992971;28;20035;-65
2021/03/22 08:30:47;;;;;;;29.67;4.75;;;6.90;99.90;;;;;;4995937;28;20022;-66
2021/03/22 08:33:37;;;;;;;20.33;4.22;;;6.90;99.90;;;;;;4979938;28;20088;-66
2021/03/22 08:36:03;;;;;;;25.30;4.75;;;6.70;99.90;;;;;;4996053;28;20088;-65
2021/03/22 08:38:58;;;;;;;19.55;4.43;;;6.70;99.90;;;;;;4997406;28;20113;-65
2021/03/22 08:41:36;;;;;;;24.80;4.43;;;6.70;99.90;;;;;;4972344;28;20042;-65
2021/03/22 08:44:17;;;;;;;23.85;4.60;;;6.60;99.90;;;;;;4978454;28;20129;-65
2021/03/22 08:46:53;;;;;;;23.60;4.10;;;6.70;99.90;;;;;;4993514;28;20845;-65
2021/03/22 08:49:45;;;;;;;24.95;3.90;;;6.60;99.90;;;;;;4978877;28;20040;-64
2021/03/22 08:52:20;;;;;;;38.78;9.57;;;6.70;99.90;;;;;;4982562;28;20173;-64
2021/03/22 08:54:46;;;;;;;22.95;3.75;;;6.70;99.90;;;;;;4975666;28;20038;-64
2021/03/22 08:57:17;;;;;;;22.63;4.05;;;6.90;99.90;;;;;;4996776;28;20036;-65
2021/03/22 08:59:43;;;;;;;19.52;4.47;;;7.20;99.90;;;;;;4978328;28;20042;-65
2021/03/22 09:02:23;;;;;;;21.52;3.60;;;7.50;99.90;;;;;;4997101;28;20037;-65
2021/03/22 09:04:51;;;;;;;18.40;3.50;;;7.80;99.90;;;;;;4996165;28;20030;-65
2021/03/22 09:07:16;;;;;;;22.27;4.53;;;7.90;99.90;;;;;;4995638;28;20034;-65
2021/03/22 09:09:45;;;;;;;14.10;3.00;;;8.00;99.90;;;;;;4974318;28;20048;-66
2021/03/22 09:12:32;;;;;;;17.10;3.42;;;8.20;98.50;;;;;;4991413;28;20037;-64
2021/03/22 09:14:59;;;;;;;17.88;2.90;;;8.40;96.60;;;;;;4975466;28;20038;-64
2021/03/22 09:17:55;;;;;;;20.33;4.38;;;8.30;98.30;;;;;;4977656;28;20041;-70
2021/03/22 09:20:47;;;;;;;17.27;3.50;;;8.40;98.10;;;;;;4978076;28;20062;-65
2021/03/22 09:23:30;;;;;;;21.10;3.88;;;8.70;98.80;;;;;;4963662;28;20046;-66
2021/03/22 09:26:08;;;;;;;26.17;5.05;;;9.20;99.90;;;;;;4993786;28;20539;-64
2021/03/22 09:28:39;;;;;;;20.55;3.15;;;9.40;97.40;;;;;;4993426;28;20655;-65
2021/03/22 09:31:17;;;;;;;18.95;3.30;;;9.30;96.10;;;;;;4995526;28;20111;-65
2021/03/22 09:34:16;;;;;;;16.15;3.08;;;9.30;96.20;;;;;;4995975;28;20026;-66
2021/03/22 09:36:47;;;;;;;18.23;3.95;;;9.60;94.40;;;;;;4990431;28;20041;-65
2021/03/22 09:39:18;;;;;;;23.10;4.38;;;9.80;92.40;;;;;;4977122;28;20045;-65
2021/03/22 09:42:06;;;;;;;19.73;3.85;;;9.60;92.30;;;;;;4994950;28;20037;-65
2021/03/22 09:44:38;;;;;;;15.45;3.22;;;9.40;92.60;;;;;;4993323;28;20026;-65
2021/03/22 09:47:26;;;;;;;11.75;2.97;;;9.50;92.80;;;;;;4993635;28;20037;-65
2021/03/22 09:50:01;;;;;;;21.30;3.80;;;9.70;94.20;;;;;;4995073;28;20041;-65
2021/03/22 09:52:38;;;;;;;17.05;3.47;;;10.00;92.20;;;;;;4990695;28;20056;-65
2021/03/22 09:55:26;;;;;;;14.13;3.35;;;10.00;92.10;;;;;;4995410;28;20485;-65
2021/03/22 09:57:57;;;;;;;16.65;3.13;;;10.30;87.20;;;;;;4956338;28;20561;-65
2021/03/22 10:00:27;;;;;;;15.45;3.10;;;10.20;90.20;;;;;;4995896;28;20177;-65
2021/03/22 10:03:11;;;;;;;14.80;2.67;;;10.10;89.90;;;;;;4993083;28;20117;-65
2021/03/22 10:05:46;;;;;;;14.82;3.03;;;10.10;87.20;;;;;;4991174;28;20199;-65
2021/03/22 10:08:11;;;;;;;15.48;3.10;;;10.10;89.90;;;;;;4977259;28;20341;-65
2021/03/22 10:10:51;;;;;;;17.63;3.25;;;10.10;90.50;;;;;;4995319;28;20499;-65
2021/03/22 10:13:22;;;;;;;21.30;3.60;;;10.00;90.50;;;;;;4994178;28;20033;-65
2021/03/22 10:15:53;;;;;;;13.63;3.10;;;10.20;88.40;;;;;;4994957;28;20185;-65
2021/03/22 10:18:27;;;;;;;20.52;3.97;;;10.30;84.30;;;;;;4992204;28;20026;-65
2021/03/22 10:21:10;;;;;;;16.88;3.03;;;10.50;87.20;;;;;;4977193;28;20038;-66
2021/03/22 10:23:55;;;;;;;12.77;2.95;;;10.60;83.10;;;;;;4994734;28;20033;-65
2021/03/22 10:26:24;;;;;;;;;;;10.80;80.40;;;;;;4994732;28;20465;-64
2021/03/22 10:28:50;;;;;;;21.25;3.47;;;11.00;83.20;;;;;;4995296;28;20015;-65
2021/03/22 10:31:25;;;;;;;15.38;4.97;;;10.70;82.80;;;;;;4995949;28;20038;-64
2021/03/22 10:33:57;;;;;;;16.95;2.67;;;10.70;83.20;;;;;;4994843;28;20497;-64
2021/03/22 10:36:30;;;;;;;15.93;3.22;;;10.80;83.60;;;;;;4996575;28;20038;-64
2021/03/22 10:38:56;;;;;;;10.60;2.85;;;11.00;83.00;;;;;;4997238;28;20703;-65
2021/03/22 10:41:39;;;;;;;13.18;2.63;;;11.10;83.90;;;;;;4979270;28;20030;-66
2021/03/22 10:44:13;;;;;;;12.80;3.03;;;11.30;78.40;;;;;;4994644;28;20022;-64
2021/03/22 10:46:39;;;;;;;14.70;3.20;;;11.20;76.30;;;;;;4994913;28;20565;-64
2021/03/22 10:49:23;;;;;;;16.85;2.78;;;11.10;81.20;;;;;;4994894;28;20038;-64
2021/03/22 10:51:52;;;;;;;23.33;3.17;;;11.40;76.20;;;;;;4994341;28;20038;-64
2021/03/22 10:54:23;;;;;;;14.43;2.55;;;11.60;73.90;;;;;;4995044;28;20042;-66
2021/03/22 10:56:55;;;;;;;8.02;2.40;;;11.60;68.80;;;;;;4994114;28;20153;-66
2021/03/22 10:59:24;;;;;;;11.65;2.28;;;11.30;72.60;;;;;;4995396;28;20084;-66
2021/03/22 11:01:53;;;;;;;12.50;2.22;;;11.40;70.50;;;;;;4991828;28;20068;-66
2021/03/22 11:04:33;;;;;;;8.60;1.85;;;11.60;67.70;;;;;;4994239;28;20108;-67
2021/03/22 11:06:59;;;;;;;10.02;2.00;;;11.70;63.40;;;;;;4993990;28;20385;-65
2021/03/22 11:09:30;;;;;;;8.90;2.17;;;11.90;60.50;;;;;;4996301;28;20104;-67
2021/03/22 11:11:59;;;;;;;10.43;2.10;;;12.10;60.20;;;;;;4996020;28;20038;-67
2021/03/22 11:14:28;;;;;;;5.95;2.00;;;12.20;59.40;;;;;;4995858;28;20053;-67
2021/03/22 11:16:55;;;;;;;6.78;1.88;;;12.30;59.90;;;;;;4995129;28;20052;-65
2021/03/22 11:19:50;;;;;;;14.00;2.28;;;12.60;59.50;;;;;;4995734;28;20179;-65
2021/03/22 11:22:23;;;;;;;6.82;1.85;;;12.70;59.20;;;;;;4975933;28;20037;-64
2021/03/22 11:24:50;;;;;;;7.15;1.50;;;12.70;55.90;;;;;;4995282;28;20037;-63
2021/03/22 11:27:16;;;;;;;9.35;2.20;;;12.50;57.50;;;;;;4994457;28;20030;-64
2021/03/22 11:30:00;;;;;;;9.52;2.42;;;12.90;58.60;;;;;;4977250;28;20037;-65
2021/03/22 11:32:30;;;;;;;9.82;1.90;;;13.00;56.30;;;;;;4992913;28;20048;-65
2021/03/22 11:34:57;;;;;;;8.85;1.95;;;12.80;55.60;;;;;;4995678;28;20026;-65
2021/03/22 11:37:26;;;;;;;11.35;2.45;;;13.00;56.90;;;;;;4998887;28;20491;-65
2021/03/22 11:40:06;;;;;;;10.25;2.28;;;12.70;58.40;;;;;;4996447;28;20794;-67
2021/03/22 11:42:50;;;;;;;5.90;1.90;;;12.90;56.10;;;;;;4980229;28;20858;-65
2021/03/22 11:45:37;;;;;;;5.65;1.77;;;13.30;55.30;;;;;;4996685;28;20048;-65
2021/03/22 11:48:10;;;;;;;9.65;2.50;;;13.60;54.20;;;;;;4997522;28;20034;-64
2021/03/22 11:50:41;;;;;;;6.63;2.08;;;13.90;52.30;;;;;;4979063;28;20125;-64
2021/03/22 11:53:19;;;;;;;10.52;2.17;;;14.10;53.20;;;;;;4998964;28;20616;-64
2021/03/22 11:55:51;;;;;;;7.65;1.80;;;14.00;52.40;;;;;;4992195;28;20065;-64
2021/03/22 11:58:39;;;;;;;8.82;1.95;;;13.70;51.90;;;;;;4979036;28;20034;-64
2021/03/22 12:01:16;;;;;;;10.10;2.53;;;14.20;52.60;;;;;;4998192;28;20074;-64
2021/03/22 12:03:42;;;;;;;12.65;2.40;;;14.80;52.50;;;;;;4996980;28;20038;-64
2021/03/22 12:06:16;;;;;;;8.48;2.08;;;15.10;51.90;;;;;;4982814;28;20516;-64
2021/03/22 12:08:51;;;;;;;5.87;1.80;;;15.50;51.40;;;;;;4981134;28;20564;-64
2021/03/22 12:11:19;;;;;;;7.10;1.80;;;16.20;47.50;;;;;;4981778;28;20392;-64
2021/03/22 12:13:53;;;;;;;6.28;2.05;;;16.00;47.60;;;;;;4997757;28;20288;-64
2021/03/22 12:16:47;;;;;;;7.32;1.83;;;15.80;47.80;;;;;;4996681;28;20120;-64
2021/03/22 12:19:32;;;;;;;3.70;1.30;;;15.70;45.60;;;;;;4992589;28;20057;-66
2021/03/22 12:21:57;;;;;;;9.10;2.10;;;15.50;48.10;;;;;;4980614;28;20656;-66
2021/03/22 12:24:23;;;;;;;12.75;2.10;;;16.30;45.40;;;;;;4980996;28;20115;-66
2021/03/22 12:26:49;;;;;;;5.88;1.50;;;17.00;44.20;;;;;;4997097;28;20026;-66
2021/03/22 12:29:14;;;;;;;3.72;1.27;;;17.20;41.80;;;;;;4997067;28;20062;-66
2021/03/22 12:31:54;;;;;;;6.15;1.25;;;17.40;42.20;;;;;;4997873;28;20855;-66
2021/03/22 12:34:22;;;;;;;6.53;1.38;;;16.40;41.50;;;;;;4976059;28;20618;-66
2021/03/22 12:36:50;;;;;;;5.45;1.45;;;15.40;43.40;;;;;;4996237;28;20053;-66
2021/03/22 12:39:23;;;;;;;6.80;1.40;;;15.10;43.50;;;;;;4994104;28;20108;-65
2021/03/22 12:41:52;;;;;;;7.90;1.73;;;14.90;45.80;;;;;;4996914;28;20025;-64
2021/03/22 12:44:18;;;;;;;5.72;1.60;;;14.70;45.10;;;;;;4992734;28;20733;-65
2021/03/22 12:46:44;;;;;;;9.07;1.60;;;14.30;45.80;;;;;;4996776;28;20029;-64
2021/03/22 12:49:13;;;;;;;7.72;1.58;;;14.10;47.20;;;;;;4996913;28;20329;-65
2021/03/22 12:51:39;;;;;;;5.57;1.80;;;13.90;48.40;;;;;;4997989;28;20140;-65
2021/03/22 12:54:04;;;;;;;4.85;1.45;;;13.80;47.00;;;;;;4998213;28;20033;-67
2021/03/22 12:56:30;;;;;;;5.15;1.40;;;13.60;47.40;;;;;;4995521;28;20038;-68
2021/03/22 12:58:57;;;;;;;3.80;1.40;;;13.60;48.60;;;;;;4996457;28;20065;-63
2021/03/22 13:01:24;;;;;;;5.72;1.33;;;13.60;48.80;;;;;;4977950;28;20427;-64
2021/03/22 13:03:49;;;;;;;12.65;1.80;;;14.00;46.80;;;;;;4995904;28;20041;-64
2021/03/22 13:06:15;;;;;;;4.75;1.50;;;13.70;45.50;;;;;;4977839;28;20037;-64
2021/03/22 13:08:41;;;;;;;7.05;1.50;;;13.90;47.00;;;;;;4996223;28;20177;-69
2021/03/22 13:11:09;;;;;;;2.92;1.10;;;14.40;46.20;;;;;;4995923;28;20145;-68
2021/03/22 13:13:34;;;;;;;3.17;1.05;;;14.80;45.50;;;;;;4996622;28;20616;-68
2021/03/22 13:16:00;;;;;;;6.18;1.52;;;14.60;44.90;;;;;;4977305;28;20042;-64
2021/03/22 13:18:31;;;;;;;5.78;1.38;;;14.20;44.70;;;;;;4977401;28;20132;-64